createdAt,value
2022-11-02T00:02:11.275Z,76.45
2022-11-02T00:04:41.093Z,75.94
2022-11-02T00:07:13.451Z,75.90
2022-11-02T00:09:43.210Z,76.29
2022-11-02T00:12:12.980Z,76.60
2022-11-02T00:14:42.733Z,76.54
2022-11-02T00:17:12.472Z,76.80
2022-11-02T00:19:42.335Z,76.63
2022-11-02T00:22:14.721Z,76.53
2022-11-02T00:24:44.964Z,76.66
2022-11-02T00:27:14.766Z,76.15
2022-11-02T00:29:44.549Z,76.08
2022-11-02T00:32:14.290Z,76.38
2022-11-02T00:34:44.037Z,76.22
2022-11-02T00:37:16.377Z,76.35
2022-11-02T00:39:46.187Z,76.20
2022-11-02T00:42:16.178Z,75.85
2022-11-02T00:44:46.071Z,75.88
2022-11-02T00:47:15.804Z,75.94
2022-11-02T00:49:45.547Z,76.01
2022-11-02T00:52:17.994Z,76.34
2022-11-02T00:54:52.131Z,76.04
2022-11-02T00:57:22.129Z,76.04
2022-11-02T00:59:52.036Z,75.91
2022-11-02T01:02:22.008Z,75.94
2022-11-02T01:04:51.882Z,76.14
2022-11-02T01:07:24.776Z,75.21
2022-11-02T01:09:54.566Z,75.66
2022-11-02T01:12:24.734Z,75.83
2022-11-02T01:14:54.487Z,75.63
2022-11-02T01:17:24.277Z,75.37
2022-11-02T01:19:54.190Z,75.55
2022-11-02T01:22:26.523Z,75.42
2022-11-02T01:24:56.260Z,75.79
2022-11-02T01:27:26.018Z,75.84
2022-11-02T01:29:55.744Z,75.88
2022-11-02T01:32:25.475Z,75.65
2022-11-02T01:34:55.258Z,75.88
2022-11-02T01:37:27.684Z,75.56
2022-11-02T01:39:57.461Z,75.47
2022-11-02T01:42:29.225Z,75.60
2022-11-02T01:44:59.537Z,75.52
2022-11-02T01:47:32.567Z,75.42
2022-11-02T01:50:07.532Z,75.75
2022-11-02T01:52:42.158Z,75.84
2022-11-02T01:55:16.639Z,75.73
2022-11-02T01:57:51.148Z,75.46
2022-11-02T02:00:21.904Z,75.36
2022-11-02T02:03:00.289Z,74.93
2022-11-02T02:05:32.522Z,75.32
2022-11-02T02:08:08.186Z,75.00
2022-11-02T02:10:38.524Z,74.97
2022-11-02T02:13:10.366Z,75.20
2022-11-02T02:15:48.408Z,74.91
2022-11-02T02:18:25.551Z,74.94
2022-11-02T02:21:14.994Z,75.94
2022-11-02T02:24:16.089Z,77.77
2022-11-02T02:27:15.125Z,79.57
2022-11-02T02:29:55.676Z,80.16
2022-11-02T02:32:33.178Z,80.09
2022-11-02T02:35:14.171Z,81.30
2022-11-02T02:37:52.504Z,81.20
2022-11-02T02:40:28.196Z,81.26
2022-11-02T02:43:02.277Z,81.00
2022-11-02T02:45:40.214Z,80.92
2022-11-02T02:48:17.116Z,81.03
2022-11-02T02:50:51.236Z,81.27
2022-11-02T02:53:27.132Z,81.13
2022-11-02T02:55:57.796Z,81.04
2022-11-02T02:58:31.333Z,81.21
2022-11-02T03:01:04.550Z,81.53
2022-11-02T03:03:36.935Z,81.49
2022-11-02T03:06:16.513Z,81.42
2022-11-02T03:08:58.493Z,81.79
2022-11-02T03:11:28.677Z,81.69
2022-11-02T03:14:20.080Z,81.29
2022-11-02T03:17:08.648Z,81.75
2022-11-02T03:19:47.968Z,82.40
2022-11-02T03:22:25.911Z,82.29
2022-11-02T03:25:02.348Z,83.02
2022-11-02T03:27:40.749Z,82.90
2022-11-02T03:30:15.271Z,83.20
2022-11-02T03:32:56.410Z,83.70
2022-11-02T03:35:34.854Z,84.39
2022-11-02T03:38:09.880Z,85.13
2022-11-02T03:40:45.201Z,85.46
2022-11-02T03:43:18.580Z,85.33
2022-11-02T03:45:52.366Z,85.77
2022-11-02T03:48:28.359Z,85.95
2022-11-02T03:51:01.145Z,85.99
2022-11-02T03:53:37.410Z,85.82
2022-11-02T03:56:12.440Z,85.45
2022-11-02T03:58:42.388Z,84.89
2022-11-02T04:01:13.451Z,84.80
2022-11-02T04:03:48.829Z,84.10
2022-11-02T04:06:20.438Z,84.54
2022-11-02T04:08:52.060Z,84.28
2022-11-02T04:11:36.209Z,83.86
2022-11-02T04:14:29.314Z,84.35
2022-11-02T04:17:13.010Z,84.05
2022-11-02T04:19:50.296Z,83.10
2022-11-02T04:22:33.700Z,82.64
2022-11-02T04:25:19.090Z,82.50
2022-11-02T04:28:21.242Z,82.48
2022-11-02T04:30:56.369Z,82.26
2022-11-02T04:33:37.327Z,82.25
2022-11-02T04:36:19.217Z,82.04
2022-11-02T04:38:52.242Z,82.00
2022-11-02T04:41:39.349Z,82.12
2022-11-02T04:44:14.325Z,82.46
2022-11-02T04:46:47.374Z,82.30
2022-11-02T04:49:18.776Z,82.48
2022-11-02T04:51:51.319Z,82.49
2022-11-02T04:54:22.594Z,82.30
2022-11-02T04:56:58.308Z,82.83
2022-11-02T04:59:29.610Z,82.12
2022-11-02T05:02:00.834Z,82.06
2022-11-02T05:04:31.396Z,81.81
2022-11-02T05:07:06.430Z,81.81
2022-11-02T05:09:38.401Z,82.20
2022-11-02T05:12:08.834Z,82.21
2022-11-02T05:14:39.033Z,82.10
2022-11-02T05:17:09.618Z,81.99
2022-11-02T05:19:40.928Z,81.60
2022-11-02T05:22:13.309Z,81.83
2022-11-02T05:24:43.260Z,81.71
2022-11-02T05:27:14.090Z,81.84
2022-11-02T05:29:45.698Z,82.43
2022-11-02T05:32:15.606Z,81.55
2022-11-02T05:34:46.324Z,82.00
2022-11-02T05:37:19.947Z,81.85
2022-11-02T05:39:50.710Z,83.21
2022-11-02T05:42:20.970Z,83.17
2022-11-02T05:44:50.755Z,82.77
2022-11-02T05:47:20.738Z,82.29
2022-11-02T05:49:50.558Z,82.25
2022-11-02T05:52:22.994Z,82.11
2022-11-02T05:54:52.958Z,81.99
2022-11-02T05:57:26.194Z,81.78
2022-11-02T05:59:59.178Z,82.11
2022-11-02T06:02:29.111Z,82.25
2022-11-02T06:04:59.983Z,82.06
2022-11-02T06:07:33.438Z,82.47
2022-11-02T06:10:08.302Z,82.39
2022-11-02T06:12:38.156Z,82.73
2022-11-02T06:15:08.930Z,82.69
2022-11-02T06:17:42.256Z,82.93
2022-11-02T06:20:15.297Z,82.54
2022-11-02T06:22:49.087Z,82.68
2022-11-02T06:25:20.957Z,82.72
2022-11-02T06:27:55.882Z,82.55
2022-11-02T06:30:29.300Z,82.35
2022-11-02T06:33:06.937Z,82.49
2022-11-02T06:35:39.265Z,82.29
2022-11-02T06:38:11.628Z,82.31
2022-11-02T06:40:41.773Z,82.50
2022-11-02T06:43:17.275Z,82.76
2022-11-02T06:45:49.143Z,82.09
2022-11-02T06:48:19.963Z,82.30
2022-11-02T06:50:51.805Z,81.46
2022-11-02T06:53:24.281Z,81.30
2022-11-02T06:55:56.370Z,81.24
2022-11-02T06:58:26.489Z,80.71
2022-11-02T07:01:01.008Z,80.79
2022-11-02T07:03:31.081Z,81.06
2022-11-02T07:06:00.891Z,80.93
2022-11-02T07:08:34.338Z,80.84
2022-11-02T07:11:04.800Z,80.47
2022-11-02T07:13:36.638Z,80.53
2022-11-02T07:16:06.541Z,80.52
2022-11-02T07:18:36.452Z,80.76
2022-11-02T07:21:11.901Z,79.58
2022-11-02T07:23:44.454Z,79.80
2022-11-02T07:26:14.338Z,79.96
2022-11-02T07:28:45.148Z,79.50
2022-11-02T07:31:15.089Z,79.56
2022-11-02T07:33:45.912Z,79.27
2022-11-02T07:36:16.765Z,78.60
2022-11-02T07:38:51.203Z,77.85
2022-11-02T07:41:21.088Z,77.30
2022-11-02T07:43:50.856Z,77.58
2022-11-02T07:46:30.518Z,77.62
2022-11-02T07:49:04.156Z,76.28
2022-11-02T07:51:33.985Z,76.70
2022-11-02T07:54:06.393Z,76.36
2022-11-02T07:56:38.173Z,76.09
2022-11-02T07:59:08.000Z,76.17
2022-11-02T08:01:38.968Z,76.00
2022-11-02T08:04:09.930Z,75.23
2022-11-02T08:06:40.803Z,75.40
2022-11-02T08:09:14.344Z,75.40
2022-11-02T08:11:45.354Z,74.37
2022-11-02T08:14:15.182Z,73.89
2022-11-02T08:16:45.268Z,74.51
2022-11-02T08:19:15.076Z,74.18
2022-11-02T08:21:46.872Z,73.31
2022-11-02T08:24:20.325Z,73.40
2022-11-02T08:26:53.958Z,72.79
2022-11-02T08:29:25.833Z,72.31
2022-11-02T08:31:55.626Z,72.76
2022-11-02T08:34:25.484Z,73.06
2022-11-02T08:36:56.293Z,73.39
2022-11-02T08:39:29.702Z,72.18
2022-11-02T08:42:01.530Z,73.03
2022-11-02T08:44:31.325Z,72.34
2022-11-02T08:47:03.116Z,71.84
2022-11-02T08:49:35.284Z,71.47
2022-11-02T08:52:05.097Z,71.31
2022-11-02T08:54:40.819Z,71.63
2022-11-02T08:57:10.660Z,71.71
2022-11-02T08:59:40.486Z,71.96
2022-11-02T09:02:12.724Z,72.16
2022-11-02T09:04:42.650Z,71.72
2022-11-02T09:07:18.221Z,71.12
2022-11-02T09:09:53.831Z,70.57
2022-11-02T09:12:29.976Z,69.87
2022-11-02T09:15:00.877Z,70.28
2022-11-02T09:17:31.934Z,70.36
2022-11-02T09:20:05.189Z,69.05
2022-11-02T09:22:35.004Z,69.01
2022-11-02T09:25:07.970Z,69.17
2022-11-02T09:27:38.809Z,69.35
2022-11-02T09:30:10.066Z,68.93
2022-11-02T09:32:43.181Z,68.42
2022-11-02T09:35:14.696Z,68.83
2022-11-02T09:37:50.114Z,68.20
2022-11-02T09:40:25.234Z,67.94
2022-11-02T09:43:07.494Z,66.69
2022-11-02T09:45:39.993Z,66.69
2022-11-02T09:48:20.843Z,66.28
2022-11-02T09:51:02.104Z,67.46
2022-11-02T09:53:40.516Z,65.89
2022-11-02T09:56:15.522Z,66.69
2022-11-02T09:58:51.308Z,65.10
2022-11-02T10:01:43.156Z,65.52
2022-11-02T10:04:34.621Z,64.80
2022-11-02T10:07:13.447Z,65.83
2022-11-02T10:09:52.693Z,65.08
2022-11-02T10:12:29.635Z,65.46
2022-11-02T10:15:05.059Z,65.15
2022-11-02T10:17:42.037Z,62.91
2022-11-02T10:20:27.675Z,62.71
2022-11-02T10:23:07.174Z,63.79
2022-11-02T10:25:43.078Z,64.72
2022-11-02T10:28:21.257Z,63.87
2022-11-02T10:30:52.386Z,63.48
2022-11-02T10:33:28.032Z,64.08
2022-11-02T10:36:18.200Z,63.59
2022-11-02T10:39:04.174Z,61.91
2022-11-02T10:42:12.140Z,61.90
2022-11-02T10:45:06.277Z,62.69
2022-11-02T10:47:44.557Z,63.87
2022-11-02T10:50:35.491Z,63.18
2022-11-02T10:53:35.353Z,62.53
2022-11-02T10:56:04.457Z,62.08
2022-11-02T10:58:36.496Z,61.62
2022-11-02T11:01:12.612Z,62.61
2022-11-02T11:04:01.028Z,63.25
2022-11-02T11:06:37.226Z,63.40
2022-11-02T11:09:10.105Z,61.86
2022-11-02T11:11:42.037Z,61.45
2022-11-02T11:20:37.347Z,60.13
2022-11-02T11:23:24.354Z,60.29
2022-11-02T11:25:59.501Z,61.13
2022-11-02T11:28:32.218Z,61.05
2022-11-02T11:31:09.705Z,61.07
2022-11-02T11:33:51.247Z,61.99
2022-11-02T11:36:31.100Z,61.48
2022-11-02T11:39:03.768Z,60.56
2022-11-02T11:41:35.782Z,59.93
2022-11-02T11:44:06.158Z,60.38
2022-11-02T11:46:47.321Z,60.51
2022-11-02T11:52:30.026Z,59.87
2022-11-02T11:55:03.426Z,60.94
2022-11-02T12:00:31.276Z,59.56
2022-11-02T12:03:10.477Z,58.92
2022-11-02T12:05:53.736Z,59.87
2022-11-02T12:08:44.279Z,58.29
2022-11-02T12:11:29.234Z,57.90
2022-11-02T12:14:18.656Z,57.50
2022-11-02T12:17:08.260Z,57.04
2022-11-02T12:19:54.431Z,56.86
2022-11-02T12:22:38.628Z,56.49
2022-11-02T12:25:23.622Z,56.49
2022-11-02T12:28:04.222Z,57.49
2022-11-02T12:30:45.611Z,58.15
2022-11-02T12:33:29.425Z,58.38
2022-11-02T12:36:12.582Z,59.01
2022-11-02T12:39:08.953Z,58.96
2022-11-02T12:41:49.038Z,59.47
2022-11-02T12:44:38.026Z,58.96
2022-11-02T12:47:24.654Z,60.18
2022-11-02T12:50:05.028Z,60.08
2022-11-02T12:52:46.558Z,60.01
2022-11-02T12:55:26.804Z,59.77
2022-11-02T12:58:02.734Z,57.46
2022-11-02T13:00:36.744Z,58.00
2022-11-02T13:03:15.934Z,58.01
2022-11-02T13:05:54.244Z,56.46
2022-11-02T13:08:32.851Z,55.44
2022-11-02T13:11:11.609Z,54.41
2022-11-02T13:13:46.730Z,55.69
2022-11-02T13:16:19.679Z,55.86
2022-11-02T13:18:53.362Z,56.63
2022-11-02T13:21:38.465Z,55.36
2022-11-02T13:24:18.638Z,54.89
2022-11-02T13:26:57.565Z,54.19
2022-11-02T13:29:45.147Z,54.19
2022-11-02T13:32:28.454Z,54.38
2022-11-02T13:35:08.413Z,53.96
2022-11-02T13:37:44.485Z,52.98
2022-11-02T13:40:20.347Z,52.97
2022-11-02T13:43:24.673Z,53.18
2022-11-02T13:46:30.610Z,54.37
2022-11-02T13:49:05.820Z,54.87
2022-11-02T13:51:41.055Z,56.12
2022-11-02T13:54:17.863Z,54.05
2022-11-02T13:56:50.404Z,54.60
2022-11-02T13:59:28.875Z,55.22
2022-11-02T14:02:02.824Z,55.14
2022-11-02T14:04:41.427Z,55.38
2022-11-02T14:07:22.312Z,55.53
2022-11-02T14:09:53.821Z,56.35
2022-11-02T14:12:45.879Z,55.66
2022-11-02T14:15:51.424Z,54.48
2022-11-02T14:18:34.964Z,54.99
2022-11-02T14:21:36.678Z,54.74
2022-11-02T14:24:43.969Z,54.94
2022-11-02T14:27:32.017Z,55.53
2022-11-02T14:30:03.865Z,54.89
2022-11-02T14:32:45.179Z,55.18
2022-11-02T14:35:35.186Z,55.53
2022-11-02T14:38:21.902Z,55.23
2022-11-02T14:41:00.586Z,55.54
2022-11-02T14:43:57.287Z,55.47
2022-11-02T14:46:53.367Z,55.80
2022-11-02T14:49:28.370Z,55.72
2022-11-02T14:52:05.280Z,55.04
2022-11-02T14:54:42.427Z,54.43
2022-11-02T14:57:24.934Z,54.91
2022-11-02T14:59:59.437Z,55.12
2022-11-02T15:02:37.398Z,55.24
2022-11-02T15:05:24.278Z,55.84
2022-11-02T15:08:02.384Z,55.63
2022-11-02T15:10:48.242Z,55.04
2022-11-02T15:13:37.338Z,55.30
2022-11-02T15:16:34.574Z,56.54
2022-11-02T15:19:35.214Z,57.08
2022-11-02T15:22:38.657Z,57.21
2022-11-02T15:25:15.572Z,58.39
2022-11-02T15:27:47.630Z,58.29
2022-11-02T15:30:27.780Z,58.49
2022-11-02T15:33:03.000Z,59.27
2022-11-02T15:35:38.518Z,59.56
2022-11-02T15:38:17.578Z,59.93
2022-11-02T15:41:05.418Z,60.32
2022-11-02T15:44:11.321Z,61.13
2022-11-02T15:46:54.073Z,61.18
2022-11-02T15:49:40.530Z,61.30
2022-11-02T15:52:23.053Z,61.91
2022-11-02T15:55:06.371Z,62.70
2022-11-02T15:57:51.831Z,62.28
2022-11-02T16:00:30.345Z,62.74
2022-11-02T16:03:05.250Z,63.25
2022-11-02T16:05:44.528Z,62.99
2022-11-02T16:08:25.909Z,62.35
2022-11-02T16:11:06.790Z,62.65
2022-11-02T16:13:55.645Z,63.17
2022-11-02T16:16:35.660Z,63.63
2022-11-02T16:19:05.938Z,63.35
2022-11-02T16:21:36.869Z,63.65
2022-11-02T16:24:06.904Z,63.33
2022-11-02T16:26:38.838Z,63.14
2022-11-02T16:29:13.428Z,63.01
2022-11-02T16:31:46.373Z,63.18
2022-11-02T16:34:23.257Z,63.65
2022-11-02T16:36:53.405Z,63.82
2022-11-02T16:39:30.429Z,63.67
2022-11-02T16:42:03.119Z,63.89
2022-11-02T16:44:36.974Z,63.58
2022-11-02T16:47:20.685Z,63.20
2022-11-02T16:50:02.280Z,63.65
2022-11-02T16:52:36.069Z,63.80
2022-11-02T16:55:37.685Z,63.72
2022-11-02T16:58:10.628Z,64.35
2022-11-02T17:00:54.439Z,64.06
2022-11-02T17:03:28.245Z,64.78
2022-11-02T17:06:00.754Z,64.84
2022-11-02T17:08:34.217Z,64.02
2022-11-02T17:11:08.505Z,64.01
2022-11-02T17:13:41.289Z,64.07
2022-11-02T17:16:15.186Z,63.99
2022-11-02T17:18:45.175Z,64.16
2022-11-02T17:21:30.478Z,63.79
2022-11-02T17:24:01.735Z,64.35
2022-11-02T17:26:40.169Z,64.36
2022-11-02T17:29:32.879Z,64.35
2022-11-02T17:32:07.331Z,65.29
2022-11-02T17:34:38.213Z,65.31
2022-11-02T17:37:09.278Z,65.31
2022-11-02T17:39:39.270Z,65.50
2022-11-02T17:42:24.357Z,65.38
2022-11-02T17:44:54.159Z,66.14
2022-11-02T17:47:26.738Z,65.80
2022-11-02T17:49:57.648Z,65.79
2022-11-02T17:52:27.900Z,65.97
2022-11-02T17:55:00.784Z,66.06
2022-11-02T17:57:31.590Z,66.02
2022-11-02T18:00:01.638Z,65.83
2022-11-02T18:02:44.317Z,66.07
2022-11-02T18:05:26.113Z,65.59
2022-11-02T18:07:59.688Z,66.08
2022-11-02T18:10:33.173Z,66.74
2022-11-02T18:13:03.830Z,66.55
2022-11-02T18:15:36.157Z,66.71
2022-11-02T18:18:09.800Z,66.33
2022-11-02T18:20:42.290Z,66.53
2022-11-02T18:23:17.506Z,66.50
2022-11-02T18:25:48.483Z,66.63
2022-11-02T18:28:18.430Z,66.76
2022-11-02T18:30:48.488Z,67.37
2022-11-02T18:33:22.098Z,67.80
2022-11-02T18:35:52.052Z,68.38
2022-11-02T18:38:22.976Z,68.42
2022-11-02T18:40:53.811Z,68.24
2022-11-02T18:43:23.842Z,68.15
2022-11-02T18:45:54.862Z,68.40
2022-11-02T18:48:27.301Z,69.08
2022-11-02T18:50:57.269Z,68.91
2022-11-02T18:53:27.072Z,68.61
2022-11-02T18:55:58.046Z,68.97
2022-11-02T18:58:28.965Z,68.79
2022-11-02T19:01:08.475Z,68.41
2022-11-02T19:03:42.063Z,68.73
2022-11-02T19:06:24.469Z,68.90
2022-11-02T19:09:07.801Z,68.72
2022-11-02T19:11:39.326Z,69.15
2022-11-02T19:14:10.356Z,69.28
2022-11-02T19:16:41.736Z,69.19
2022-11-02T19:19:15.358Z,68.69
2022-11-02T19:21:48.679Z,68.91
2022-11-02T19:24:21.016Z,68.77
2022-11-02T19:26:51.270Z,68.82
2022-11-02T19:29:23.018Z,69.03
2022-11-02T19:31:53.960Z,69.56
2022-11-02T19:34:26.650Z,69.35
2022-11-02T19:36:57.624Z,69.51
2022-11-02T19:39:29.682Z,69.45
2022-11-02T19:42:03.311Z,69.45
2022-11-02T19:44:38.159Z,70.01
2022-11-02T19:47:13.311Z,69.90
2022-11-02T19:49:46.928Z,70.35
2022-11-02T19:52:16.906Z,70.89
2022-11-02T19:54:47.804Z,70.66
2022-11-02T19:57:18.872Z,71.43
2022-11-02T19:59:48.737Z,72.30
2022-11-02T20:02:18.769Z,72.56
2022-11-02T20:04:51.397Z,72.77
2022-11-02T20:07:22.370Z,73.17
2022-11-02T20:09:53.475Z,73.40
2022-11-02T20:12:26.373Z,74.23
2022-11-02T20:14:56.453Z,74.30
2022-11-02T20:17:38.089Z,74.20
2022-11-02T20:20:19.705Z,73.92
2022-11-02T20:22:49.665Z,74.21
2022-11-02T20:25:20.929Z,74.20
2022-11-02T20:27:51.926Z,74.29
2022-11-02T20:30:22.438Z,74.57
2022-11-02T20:32:53.269Z,74.34
2022-11-02T20:35:26.876Z,74.67
2022-11-02T20:37:56.911Z,75.26
2022-11-02T20:40:28.610Z,74.97
2022-11-02T20:42:58.577Z,74.96
2022-11-02T20:45:29.531Z,75.05
2022-11-02T20:48:03.759Z,75.10
2022-11-02T20:50:36.685Z,75.43
2022-11-02T20:53:07.849Z,75.45
2022-11-02T20:55:38.175Z,75.40
2022-11-02T20:58:08.261Z,75.54
2022-11-02T21:00:38.135Z,75.45
2022-11-02T21:03:09.987Z,75.65
2022-11-02T21:05:43.529Z,75.30
2022-11-02T21:08:14.321Z,75.40
2022-11-02T21:10:44.290Z,75.47
2022-11-02T21:13:27.289Z,74.83
2022-11-02T21:15:57.201Z,75.04
2022-11-02T21:18:27.212Z,75.24
2022-11-02T21:21:06.295Z,74.92
2022-11-02T21:23:36.443Z,75.08
2022-11-02T21:26:09.271Z,74.87
2022-11-02T21:28:42.168Z,74.93
2022-11-02T21:31:15.242Z,75.17
2022-11-02T21:33:45.792Z,75.10
2022-11-02T21:36:20.451Z,75.50
2022-11-02T21:38:51.232Z,75.59
2022-11-02T21:41:25.876Z,74.73
2022-11-02T21:43:56.046Z,75.31
2022-11-02T21:46:27.011Z,75.52
2022-11-02T21:48:58.019Z,75.33
2022-11-02T21:51:30.578Z,74.68
2022-11-02T21:54:00.476Z,75.20
2022-11-02T21:56:32.023Z,75.03
2022-11-02T21:59:02.122Z,75.44
2022-11-02T22:01:50.276Z,75.63
2022-11-02T22:04:25.483Z,75.87
2022-11-02T22:06:58.806Z,75.46
2022-11-02T22:09:30.353Z,75.45
2022-11-02T22:12:12.839Z,75.34
2022-11-02T22:14:44.056Z,75.30
2022-11-02T22:17:28.666Z,75.03
2022-11-02T22:20:06.221Z,74.93
2022-11-02T22:22:39.746Z,74.40
2022-11-02T22:25:10.251Z,74.36
2022-11-02T22:27:41.168Z,74.00
2022-11-02T22:30:12.055Z,74.19
2022-11-02T22:32:41.909Z,74.05
2022-11-02T22:35:12.494Z,74.51
2022-11-02T22:37:57.447Z,74.71
2022-11-02T22:40:27.268Z,75.14
2022-11-02T22:42:58.112Z,74.58
2022-11-02T22:45:27.994Z,74.74
2022-11-02T22:47:57.835Z,74.65
2022-11-02T22:50:27.969Z,74.61
2022-11-02T22:53:00.651Z,73.97
2022-11-02T22:55:31.627Z,73.88
2022-11-02T22:58:01.473Z,74.17
2022-11-02T23:00:31.345Z,73.91
2022-11-02T23:03:01.309Z,73.76
2022-11-02T23:05:33.399Z,73.56
2022-11-02T23:08:07.417Z,73.84
2022-11-02T23:10:53.566Z,73.40
2022-11-02T23:13:24.862Z,73.42
2022-11-02T23:16:14.752Z,72.95
2022-11-02T23:18:58.035Z,73.24
2022-11-02T23:21:27.862Z,73.31
2022-11-02T23:24:12.728Z,73.07
2022-11-02T23:26:46.460Z,73.19
2022-11-02T23:29:29.057Z,73.23
2022-11-02T23:32:11.295Z,73.23
2022-11-02T23:35:01.048Z,72.93
2022-11-02T23:37:28.278Z,72.58
2022-11-02T23:40:00.666Z,72.17
2022-11-02T23:42:30.584Z,72.07
2022-11-02T23:45:00.518Z,72.36
2022-11-02T23:47:43.731Z,72.47
2022-11-02T23:50:13.911Z,72.43
2022-11-02T23:52:56.198Z,72.20
2022-11-02T23:55:41.030Z,72.30
2022-11-02T23:58:10.950Z,72.33
